createdAt,value
2023-02-28T00:00:38.646Z,38.10
2023-02-28T00:03:36.159Z,37.80
2023-02-28T00:06:19.040Z,43.20
2023-02-28T00:11:44.773Z,46.80
2023-02-28T00:17:10.288Z,48.40
2023-02-28T00:22:37.618Z,41.20
2023-02-28T00:25:23.536Z,41.00
2023-02-28T00:28:06.357Z,39.80
2023-02-28T00:33:32.177Z,43.00
2023-02-28T00:36:15.264Z,40.00
2023-02-28T00:38:58.101Z,40.00
2023-02-28T00:41:44.015Z,48.70
2023-02-28T00:44:26.927Z,44.10
2023-02-28T00:49:52.664Z,41.00
2023-02-28T00:55:19.596Z,40.00
2023-02-28T00:58:02.474Z,50.80
2023-02-28T01:00:49.850Z,42.90
2023-02-28T01:03:33.042Z,41.30
2023-02-28T01:06:15.950Z,42.40
2023-02-28T01:11:44.976Z,44.70
2023-02-28T01:14:28.302Z,44.40
2023-02-28T01:17:11.340Z,42.80
2023-02-28T01:19:56.945Z,37.50
2023-02-28T01:22:41.580Z,40.20
2023-02-28T01:28:07.310Z,37.30
2023-02-28T01:30:52.017Z,45.40
2023-02-28T01:33:35.553Z,44.20
2023-02-28T01:36:20.891Z,45.40
2023-02-28T01:39:04.589Z,42.30
2023-02-28T01:41:47.576Z,46.20
2023-02-28T01:44:58.737Z,43.30
2023-02-28T01:47:43.886Z,34.50
2023-02-28T01:50:32.484Z,40.00
2023-02-28T01:53:19.048Z,37.70
2023-02-28T01:56:07.206Z,41.10
2023-02-28T01:58:55.512Z,36.70
2023-02-28T02:01:48.362Z,45.90
2023-02-28T02:05:48.841Z,38.00
2023-02-28T02:09:45.302Z,41.40
2023-02-28T02:13:57.053Z,43.10
2023-02-28T02:17:53.909Z,42.40
2023-02-28T02:21:57.935Z,40.20
2023-02-28T02:26:11.282Z,44.60
2023-02-28T02:30:21.056Z,41.10
2023-02-28T02:34:30.575Z,39.60
2023-02-28T02:38:33.610Z,41.60
2023-02-28T02:42:36.093Z,51.90
2023-02-28T02:46:40.033Z,43.50
2023-02-28T02:50:44.001Z,46.40
2023-02-28T02:54:50.756Z,47.50
2023-02-28T02:58:49.481Z,44.20
2023-02-28T03:02:53.413Z,47.60
2023-02-28T03:06:57.463Z,44.40
2023-02-28T03:11:16.612Z,52.90
2023-02-28T03:15:23.502Z,45.60
2023-02-28T03:19:58.263Z,42.90
2023-02-28T03:24:02.252Z,48.60
2023-02-28T03:27:50.853Z,53.30
2023-02-28T03:31:57.656Z,45.20
2023-02-28T03:36:16.731Z,51.90
2023-02-28T03:40:30.489Z,52.40
2023-02-28T03:44:24.694Z,55.00
2023-02-28T03:48:33.168Z,51.90
2023-02-28T03:52:22.207Z,58.60
2023-02-28T03:56:38.071Z,47.70
2023-02-28T04:00:33.537Z,49.60
2023-02-28T04:04:29.158Z,51.90
2023-02-28T04:08:23.254Z,54.80
2023-02-28T04:12:36.507Z,51.60
2023-02-28T04:16:35.690Z,44.20
2023-02-28T04:20:29.836Z,48.90
2023-02-28T04:24:33.918Z,46.90
2023-02-28T04:28:30.548Z,42.20
2023-02-28T04:32:34.616Z,43.50
2023-02-28T04:36:41.423Z,40.80
2023-02-28T04:40:44.987Z,42.80
2023-02-28T04:44:48.806Z,41.10
2023-02-28T04:48:45.747Z,37.70
2023-02-28T04:52:50.539Z,44.90
2023-02-28T04:56:47.427Z,42.20
2023-02-28T05:00:51.518Z,38.20
2023-02-28T05:04:55.411Z,40.10
2023-02-28T05:08:59.463Z,39.40
2023-02-28T05:12:42.226Z,36.80
2023-02-28T05:16:39.047Z,37.60
2023-02-28T05:20:43.094Z,34.00
2023-02-28T05:24:53.275Z,33.40
2023-02-28T05:28:57.282Z,39.50
2023-02-28T05:32:51.622Z,44.60
2023-02-28T05:36:48.528Z,34.50
2023-02-28T05:40:45.175Z,37.60
2023-02-28T05:44:49.063Z,36.20
2023-02-28T05:48:54.586Z,36.30
2023-02-28T05:52:52.485Z,35.90
2023-02-28T05:56:56.550Z,32.20
2023-02-28T06:04:39.731Z,39.80
2023-02-28T06:08:32.743Z,41.00
2023-02-28T06:12:36.711Z,35.60
2023-02-28T06:16:34.016Z,32.80
2023-02-28T06:20:41.612Z,36.30
2023-02-28T06:24:33.929Z,39.60
2023-02-28T06:28:38.003Z,35.10
2023-02-28T06:32:41.978Z,35.20
2023-02-28T06:36:45.998Z,45.40
2023-02-28T06:40:50.295Z,49.00
2023-02-28T06:44:54.134Z,50.40
2023-02-28T06:48:25.748Z,44.00
2023-02-28T06:52:28.391Z,44.30
2023-02-28T06:56:31.975Z,40.40
2023-02-28T07:00:36.034Z,57.10
2023-02-28T07:04:31.337Z,51.80
2023-02-28T07:08:28.210Z,66.00
2023-02-28T07:12:32.242Z,66.10
2023-02-28T07:16:17.354Z,59.20
2023-02-28T07:20:02.414Z,62.50
2023-02-28T07:24:04.739Z,51.20
2023-02-28T07:27:57.669Z,43.50
2023-02-28T07:31:54.723Z,43.20
2023-02-28T07:39:23.813Z,35.30
2023-02-28T07:43:14.129Z,35.70
2023-02-28T07:46:54.183Z,34.50
2023-02-28T07:50:56.950Z,31.20
2023-02-28T07:54:49.355Z,39.10
2023-02-28T07:58:14.825Z,37.40
2023-02-28T08:02:18.755Z,35.60
2023-02-28T08:06:12.883Z,33.30
2023-02-28T08:10:16.990Z,33.10
2023-02-28T08:14:06.197Z,31.90
2023-02-28T08:18:10.066Z,31.80
2023-02-28T08:22:14.141Z,32.00
2023-02-28T08:26:18.086Z,31.80
2023-02-28T08:30:22.052Z,33.00
2023-02-28T08:34:25.980Z,34.30
2023-02-28T08:38:29.871Z,33.40
2023-02-28T08:42:12.271Z,35.20
2023-02-28T08:46:16.453Z,36.30
2023-02-28T08:49:55.910Z,36.90
2023-02-28T08:53:59.966Z,34.30
2023-02-28T08:57:56.794Z,34.00
2023-02-28T09:01:53.933Z,39.70
2023-02-28T09:05:47.895Z,37.00
2023-02-28T09:13:16.945Z,33.70
2023-02-28T09:17:10.919Z,31.80
2023-02-28T09:20:59.761Z,37.80
2023-02-28T09:25:03.774Z,32.90
2023-02-28T09:28:30.956Z,30.00
2023-02-28T09:32:34.963Z,27.90
2023-02-28T09:36:45.675Z,29.00
2023-02-28T09:40:50.366Z,28.00
2023-02-28T09:44:54.232Z,30.50
2023-02-28T09:48:51.133Z,36.00
2023-02-28T09:53:01.112Z,28.20
2023-02-28T09:57:13.911Z,32.90
2023-02-28T10:01:23.780Z,29.80
2023-02-28T10:05:40.427Z,29.30
2023-02-28T10:09:22.898Z,26.30
2023-02-28T10:13:26.938Z,27.50
2023-02-28T10:17:27.636Z,29.90
2023-02-28T10:21:31.538Z,29.40
2023-02-28T10:25:34.846Z,29.50
2023-02-28T10:33:22.504Z,27.20
2023-02-28T10:36:59.806Z,23.00
2023-02-28T10:40:59.961Z,21.40
2023-02-28T10:44:59.735Z,19.80
2023-02-28T10:49:06.661Z,18.60
2023-02-28T10:53:05.151Z,19.40
2023-02-28T10:57:00.093Z,19.20
2023-02-28T11:05:11.968Z,17.60
2023-02-28T11:09:18.894Z,14.50
2023-02-28T11:13:24.902Z,13.60
2023-02-28T11:17:37.901Z,13.20
2023-02-28T11:21:40.729Z,15.90
2023-02-28T11:25:44.711Z,15.00
2023-02-28T11:29:44.226Z,17.20
2023-02-28T11:34:00.139Z,18.50
2023-02-28T11:37:56.614Z,17.40
2023-02-28T11:42:04.935Z,15.50
2023-02-28T11:46:12.061Z,11.50
2023-02-28T11:50:18.995Z,20.00
2023-02-28T11:54:24.393Z,16.90
2023-02-28T11:58:25.354Z,17.40
2023-02-28T12:02:32.068Z,14.40
2023-02-28T12:06:38.652Z,16.00
2023-02-28T12:10:42.810Z,17.00
2023-02-28T12:15:03.943Z,13.70
2023-02-28T12:19:09.944Z,14.50
2023-02-28T12:23:13.918Z,17.30
2023-02-28T12:27:21.010Z,17.20
2023-02-28T12:31:37.364Z,15.70
2023-02-28T12:35:33.944Z,15.80
2023-02-28T12:39:45.197Z,14.20
2023-02-28T12:43:46.155Z,18.80
2023-02-28T12:47:55.681Z,14.90
2023-02-28T12:51:51.149Z,16.10
2023-02-28T12:55:31.266Z,16.40
2023-02-28T12:59:38.326Z,17.30
2023-02-28T13:03:43.673Z,18.80
2023-02-28T13:07:52.186Z,15.30
2023-02-28T13:11:58.806Z,17.80
2023-02-28T13:15:56.200Z,17.40
2023-02-28T13:20:00.061Z,18.40
2023-02-28T13:24:00.406Z,16.60
2023-02-28T13:28:05.022Z,22.20
2023-02-28T13:32:00.667Z,20.60
2023-02-28T13:36:15.338Z,16.50
2023-02-28T13:40:37.755Z,14.50
2023-02-28T13:44:46.011Z,17.00
2023-02-28T13:49:02.112Z,17.90
2023-02-28T13:53:08.940Z,21.50
2023-02-28T13:57:33.719Z,20.80
2023-02-28T14:05:47.621Z,21.90
2023-02-28T14:09:48.860Z,23.90
2023-02-28T14:13:54.647Z,22.20
2023-02-28T14:17:54.305Z,21.60
2023-02-28T14:22:11.960Z,17.00
2023-02-28T14:26:12.680Z,16.10
2023-02-28T14:30:13.870Z,16.20
2023-02-28T14:34:33.082Z,17.60
2023-02-28T14:38:37.321Z,22.10
2023-02-28T14:42:41.413Z,20.40
2023-02-28T14:46:45.493Z,17.10
2023-02-28T14:50:49.611Z,16.10
2023-02-28T14:54:53.511Z,17.10
2023-02-28T14:59:00.336Z,15.20
2023-02-28T15:03:15.347Z,15.90
2023-02-28T15:07:15.705Z,22.10
2023-02-28T15:11:22.691Z,15.60
2023-02-28T15:15:31.847Z,19.00
2023-02-28T15:19:34.368Z,17.20
2023-02-28T15:23:38.309Z,17.30
2023-02-28T15:27:37.608Z,18.60
2023-02-28T15:31:37.057Z,15.60
2023-02-28T15:36:00.040Z,15.90
2023-02-28T15:40:06.811Z,17.80
2023-02-28T15:44:16.622Z,14.60
2023-02-28T15:48:26.464Z,13.90
2023-02-28T15:52:30.474Z,16.30
2023-02-28T15:56:28.846Z,19.10
2023-02-28T16:00:38.455Z,18.20
2023-02-28T16:04:40.628Z,22.90
2023-02-28T16:08:53.424Z,18.50
2023-02-28T16:12:47.549Z,17.10
2023-02-28T16:16:48.108Z,17.00
2023-02-28T16:20:54.932Z,18.40
2023-02-28T16:24:48.956Z,20.10
2023-02-28T16:28:40.939Z,24.10
2023-02-28T16:32:41.357Z,27.10
2023-02-28T16:36:26.755Z,39.50
2023-02-28T16:40:30.401Z,35.50
2023-02-28T16:44:33.326Z,40.30
2023-02-28T16:48:15.363Z,39.30
2023-02-28T16:52:03.830Z,35.10
2023-02-28T16:56:06.844Z,38.00
2023-02-28T17:00:14.803Z,34.10
2023-02-28T17:04:24.907Z,37.00
2023-02-28T17:08:29.038Z,36.30
2023-02-28T17:12:21.674Z,47.40
2023-02-28T17:16:25.679Z,43.60
2023-02-28T17:20:28.889Z,41.00
2023-02-28T17:24:22.237Z,46.10
2023-02-28T17:28:30.789Z,37.00
2023-02-28T17:32:27.695Z,42.20
2023-02-28T17:36:32.092Z,37.00
2023-02-28T17:40:29.260Z,47.00
2023-02-28T17:44:23.302Z,42.00
2023-02-28T17:48:28.277Z,59.40
2023-02-28T17:52:31.940Z,68.90
2023-02-28T17:56:35.906Z,58.50
2023-02-28T18:00:21.075Z,61.10
2023-02-28T18:04:13.853Z,52.10
2023-02-28T18:08:10.974Z,59.60
2023-02-28T18:12:15.120Z,58.60
2023-02-28T18:16:19.154Z,46.60
2023-02-28T18:20:23.282Z,48.40
2023-02-28T18:24:17.196Z,44.00
2023-02-28T18:28:21.248Z,44.90
2023-02-28T18:32:25.322Z,51.40
2023-02-28T18:40:03.253Z,55.50
2023-02-28T18:44:03.082Z,57.20
2023-02-28T18:48:12.810Z,55.20
2023-02-28T18:52:16.704Z,58.20
2023-02-28T18:56:19.164Z,57.30
2023-02-28T19:00:23.021Z,54.40
2023-02-28T19:04:27.084Z,53.30
2023-02-28T19:08:31.116Z,52.90
2023-02-28T19:12:35.033Z,51.60
2023-02-28T19:16:41.995Z,54.80
2023-02-28T19:20:36.967Z,54.50
2023-02-28T19:24:40.898Z,51.00
2023-02-28T19:28:44.783Z,53.70
2023-02-28T19:32:48.774Z,53.50
2023-02-28T19:36:52.691Z,55.30
2023-02-28T19:40:57.416Z,54.10
2023-02-28T19:45:01.437Z,52.20
2023-02-28T19:49:06.328Z,55.00
2023-02-28T19:53:10.228Z,54.90
2023-02-28T19:57:04.973Z,50.70
2023-02-28T20:01:10.094Z,57.20
2023-02-28T20:05:14.190Z,53.40
2023-02-28T20:09:18.214Z,53.60
2023-02-28T20:13:25.735Z,51.90
2023-02-28T20:17:29.772Z,55.50
2023-02-28T20:21:33.857Z,58.30
2023-02-28T20:25:38.040Z,57.20
2023-02-28T20:29:41.880Z,64.80
2023-02-28T20:33:38.503Z,57.10
2023-02-28T20:37:34.846Z,71.30
2023-02-28T20:41:41.683Z,65.70
2023-02-28T20:45:38.827Z,74.90
2023-02-28T20:49:42.812Z,64.90
2023-02-28T20:53:47.194Z,72.20
2023-02-28T20:57:49.954Z,72.60
2023-02-28T21:01:59.767Z,81.20
2023-02-28T21:06:05.043Z,94.90
2023-02-28T21:10:09.735Z,98.50
2023-02-28T21:14:13.757Z,87.50
2023-02-28T21:18:17.915Z,87.20
2023-02-28T21:22:21.836Z,86.70
2023-02-28T21:26:08.285Z,88.30
2023-02-28T21:30:12.392Z,85.60
2023-02-28T21:34:16.259Z,86.40
2023-02-28T21:38:20.369Z,98.20
2023-02-28T21:42:24.332Z,105.50
2023-02-28T21:46:29.049Z,102.80
2023-02-28T21:50:33.379Z,117.80
2023-02-28T21:54:27.423Z,116.50
2023-02-28T21:58:31.588Z,109.60
2023-02-28T22:02:26.152Z,111.20
2023-02-28T22:06:30.799Z,114.00
2023-02-28T22:10:35.000Z,138.00
2023-02-28T22:14:38.915Z,144.30
2023-02-28T22:18:43.019Z,146.00
2023-02-28T22:22:41.008Z,152.50
2023-02-28T22:26:47.982Z,149.90
2023-02-28T22:30:52.218Z,151.90
2023-02-28T22:34:48.953Z,150.20
2023-02-28T22:38:45.519Z,151.60
2023-02-28T22:42:50.200Z,137.20
2023-02-28T22:46:54.224Z,130.50
2023-02-28T22:50:58.440Z,155.00
2023-02-28T22:54:59.509Z,194.60
2023-02-28T22:59:05.448Z,180.40
2023-02-28T23:03:03.469Z,173.80
2023-02-28T23:07:16.641Z,162.90
2023-02-28T23:14:56.004Z,161.40
2023-02-28T23:18:52.629Z,181.50
2023-02-28T23:22:56.646Z,168.90
2023-02-28T23:26:49.688Z,171.20
2023-02-28T23:30:53.888Z,151.70
2023-02-28T23:34:57.853Z,160.10
2023-02-28T23:39:01.774Z,153.10
2023-02-28T23:43:04.524Z,153.40
2023-02-28T23:47:08.603Z,164.60
2023-02-28T23:51:08.439Z,165.50
2023-02-28T23:55:12.496Z,174.20
2023-02-28T23:59:16.483Z,157.50
